Time,TemperatureF,DewpointF,PressureIn,WindDirection,WindDirectionDegrees,WindSpeedMPH,WindSpeedGustMPH,Humidity,HourlyPrecipIn,Conditions,Clouds,dailyrainin,SolarRadiationWatts/m^2,SoftwareType,DateUTC
2013-07-11 00:01:00,79.0,28.0,-100.00,East,100,1.0,2.0,15,-99.99,,,-99.99,0.000000,,2013-07-11 07:01:00,
2013-07-11 00:10:00,75.0,31.0,30.06,East,79,4.0,8.0,20,-99.99,,,-99.99,0.000000,,2013-07-11 07:10:00,
2013-07-11 00:53:00,75.0,31.0,30.06,East,79,4.0,8.0,20,-99.99,,,-99.99,0.000000,,2013-07-11 07:53:00,
2013-07-11 01:02:00,75.0,31.0,30.06,East,79,4.0,8.0,20,-99.99,,,-99.99,0.000000,,2013-07-11 08:02:00,
2013-07-11 01:10:00,76.0,31.0,30.06,ESE,119,3.0,4.0,19,-99.99,,,-99.99,0.000000,,2013-07-11 08:10:00,
2013-07-11 01:53:00,76.0,31.0,30.06,ESE,119,3.0,4.0,19,-99.99,,,-99.99,0.000000,,2013-07-11 08:53:00,
2013-07-11 02:02:00,76.0,31.0,30.06,ESE,119,3.0,4.0,19,-99.99,,,-99.99,0.000000,,2013-07-11 09:02:00,
2013-07-11 02:10:00,76.0,30.0,30.05,West,275,2.0,7.0,19,-99.99,,,-99.99,0.000000,,2013-07-11 09:10:00,
2013-07-11 02:53:00,76.0,30.0,30.05,West,275,2.0,7.0,19,-99.99,,,-99.99,0.000000,,2013-07-11 09:53:00,
2013-07-11 03:01:00,76.0,30.0,30.05,West,275,2.0,7.0,19,-99.99,,,-99.99,0.000000,,2013-07-11 10:01:00,
2013-07-11 03:10:00,70.0,32.0,-100.00,SSE,160,5.0,7.0,25,-99.99,,,-99.99,0.000000,,2013-07-11 10:10:00,
2013-07-11 04:02:00,70.0,32.0,30.05,SSE,160,5.0,7.0,25,-99.99,,,-99.99,0.000000,,2013-07-11 11:02:00,
2013-07-11 04:10:00,69.0,32.0,30.05,NNW,328,2.0,5.0,26,-99.99,,,-99.99,0.000000,,2013-07-11 11:10:00,
2013-07-11 04:53:00,69.0,32.0,30.05,NNW,328,2.0,5.0,26,-99.99,,,-99.99,0.000000,,2013-07-11 11:53:00,
2013-07-11 05:01:00,69.0,32.0,30.05,NNW,328,2.0,5.0,26,-99.99,,,-99.99,0.000000,,2013-07-11 12:01:00,
2013-07-11 05:10:00,68.0,32.0,30.06,WNW,298,1.0,3.0,26,-99.99,,,-99.99,0.000000,,2013-07-11 12:10:00,
2013-07-11 05:54:00,68.0,32.0,30.06,WNW,298,1.0,3.0,26,-99.99,,,-99.99,0.000000,,2013-07-11 12:54:00,
2013-07-11 06:02:00,68.0,32.0,30.06,WNW,298,1.0,3.0,26,-99.99,,,-99.99,0.000000,,2013-07-11 13:02:00,
2013-07-11 07:04:00,65.0,36.0,30.07,North,360,3.0,5.0,35,-99.99,,,-99.99,30.000000,,2013-07-11 14:04:00,
2013-07-11 07:10:00,70.0,37.0,30.07,NNW,334,1.0,2.0,30,-99.99,,,-99.99,110.000000,,2013-07-11 14:10:00,
2013-07-11 07:53:00,70.0,37.0,30.07,NNW,334,1.0,2.0,30,-99.99,,,-99.99,110.000000,,2013-07-11 14:53:00,
2013-07-11 08:04:00,70.0,37.0,30.07,NNW,334,1.0,2.0,30,-99.99,,,-99.99,110.000000,,2013-07-11 15:04:00,
2013-07-11 08:55:00,72.0,44.0,30.07,NNE,12,1.0,2.0,37,-99.99,,,-99.99,160.000000,,2013-07-11 15:55:00,
2013-07-11 09:10:00,75.0,39.0,-100.00,NNE,24,6.0,9.0,28,-99.99,,,-99.99,310.000000,,2013-07-11 16:10:00,
2013-07-11 09:54:00,75.0,39.0,-100.00,NNE,24,6.0,9.0,28,-99.99,,,-99.99,310.000000,,2013-07-11 16:54:00,
2013-07-11 10:02:00,75.0,39.0,30.06,NNE,24,6.0,9.0,28,-99.99,,,-99.99,310.000000,,2013-07-11 17:02:00,
2013-07-11 10:10:00,82.0,37.0,-100.00,NE,52,3.0,5.0,20,-99.99,,,-99.99,500.000000,,2013-07-11 17:10:00,
2013-07-11 10:52:00,82.0,37.0,-100.00,NE,52,3.0,5.0,20,-99.99,,,-99.99,500.000000,,2013-07-11 17:52:00,
2013-07-11 11:03:00,82.0,37.0,-100.00,NE,52,3.0,5.0,20,-99.99,,,-99.99,500.000000,,2013-07-11 18:03:00,
2013-07-11 11:10:00,80.0,41.0,-100.00,WNW,285,7.0,13.0,25,-99.99,,,-99.99,300.000000,,2013-07-11 18:10:00,
2013-07-11 12:03:00,80.0,41.0,-100.00,WNW,285,7.0,13.0,25,-99.99,,,-99.99,300.000000,,2013-07-11 19:03:00,
2013-07-11 12:10:00,76.0,42.0,-100.00,West,278,13.0,22.0,30,-99.99,,,-99.99,160.000000,,2013-07-11 19:10:00,
2013-07-11 12:54:00,76.0,42.0,-100.00,West,278,13.0,22.0,30,-99.99,,,-99.99,160.000000,,2013-07-11 19:54:00,
2013-07-11 13:03:00,76.0,42.0,-100.00,West,278,13.0,22.0,30,-99.99,,,-99.99,160.000000,,2013-07-11 20:03:00,
2013-07-11 13:10:00,73.0,45.0,-100.00,WNW,282,16.0,28.0,36,-99.99,,,-99.99,240.000000,,2013-07-11 20:10:00,
2013-07-11 13:52:00,73.0,45.0,-100.00,WNW,282,16.0,28.0,36,-99.99,,,-99.99,240.000000,,2013-07-11 20:52:00,
2013-07-11 14:03:00,73.0,45.0,-100.00,WNW,282,16.0,28.0,36,-99.99,,,-99.99,240.000000,,2013-07-11 21:03:00,
2013-07-11 14:10:00,75.0,43.0,-100.00,SW,236,10.0,16.0,32,-99.99,,,-99.99,90.000000,,2013-07-11 21:10:00,
2013-07-11 15:04:00,75.0,43.0,-100.00,SW,236,10.0,16.0,32,-99.99,,,-99.99,90.000000,,2013-07-11 22:04:00,
2013-07-11 15:10:00,72.0,50.0,30.09,SE,124,10.0,16.0,46,-99.99,,,-99.99,180.000000,,2013-07-11 22:10:00,
2013-07-11 15:54:00,72.0,50.0,30.09,SE,124,10.0,16.0,46,-99.99,,,-99.99,180.000000,,2013-07-11 22:54:00,
2013-07-11 16:10:00,69.0,50.0,30.10,SW,225,6.0,8.0,51,-99.99,,,-99.99,70.000000,,2013-07-11 23:10:00,
2013-07-11 16:54:00,69.0,50.0,30.10,SW,225,6.0,8.0,51,-99.99,,,-99.99,70.000000,,2013-07-11 23:54:00,
2013-07-11 17:03:00,69.0,50.0,30.10,SW,225,6.0,8.0,51,-99.99,,,-99.99,70.000000,,2013-07-12 00:03:00,
2013-07-11 23:10:00,65.0,49.0,30.11,South,174,4.0,6.0,56,-99.99,,,-99.99,0.000000,,2013-07-12 06:10:00,
2013-07-11 23:52:00,65.0,49.0,30.11,South,174,4.0,6.0,56,-99.99,,,-99.99,0.000000,,2013-07-12 06:52:00,